Time;durP1;ratioP1;P1;durP2;ratioP2;P2;SDS_P1;SDS_P2;PMS_P1;PMS_P2;Temp;Humidity;BMP_temperature;BMP_pressure;BME280_temperature;BME280_humidity;BME280_pressure;Samples;Min_cycle;Max_cycle;Signal;HPM_P1;HPM_P2
2023/08/18 00:02:08;;;;;;;6.80;6.30;;;;;;;16.29;nan;97134.06;5016569;28;20211;-66
2023/08/18 00:04:36;;;;;;;7.60;6.83;;;;;;;16.30;nan;97146.38;5019886;28;20688;-66
2023/08/18 00:07:04;;;;;;;8.17;7.57;;;;;;;16.29;nan;97140.25;5014360;28;20214;-66
2023/08/18 00:09:31;;;;;;;7.63;7.07;;;;;;;16.28;nan;97135.91;5017050;28;20215;-67
2023/08/18 00:12:00;;;;;;;7.37;6.77;;;;;;;16.26;nan;97139.84;4973364;28;20715;-68
2023/08/18 00:14:28;;;;;;;8.17;7.50;;;;;;;16.27;nan;97136.94;5016442;28;20220;-67
2023/08/18 00:16:56;;;;;;;8.17;7.50;;;;;;;16.25;nan;97141.69;5013125;28;20208;-68
2023/08/18 00:19:23;;;;;;;8.00;7.50;;;;;;;16.24;nan;97144.59;5016744;28;20235;-67
2023/08/18 00:21:51;;;;;;;7.20;6.53;;;;;;;16.23;nan;97140.31;5017136;28;20910;-66
2023/08/18 00:24:19;;;;;;;7.53;7.03;;;;;;;16.19;nan;97140.75;5015872;28;20205;-66
2023/08/18 00:26:46;;;;;;;8.17;7.43;;;;;;;16.22;nan;97138.66;4884545;28;20216;-68
2023/08/18 00:29:16;;;;;;;8.33;7.73;;;;;;;16.23;nan;97141.09;5020936;28;20204;-68
2023/08/18 00:31:44;;;;;;;7.90;7.40;;;;;;;16.23;nan;97145.66;5013539;28;20557;-68
2023/08/18 00:34:11;;;;;;;7.93;7.33;;;;;;;16.22;nan;97154.69;5016805;28;20204;-67
2023/08/18 00:36:39;;;;;;;7.57;6.97;;;;;;;16.20;nan;97147.72;5014000;28;20227;-68
2023/08/18 00:39:07;;;;;;;8.07;7.37;;;;;;;16.22;nan;97149.34;5018531;28;20961;-68
2023/08/18 00:41:34;;;;;;;8.07;7.33;;;;;;;16.22;nan;97154.69;4973315;28;20222;-68
2023/08/18 00:44:02;;;;;;;8.17;7.57;;;;;;;16.19;nan;97151.44;5016245;28;20275;-67
2023/08/18 00:46:31;;;;;;;8.10;7.50;;;;;;;16.13;nan;97144.31;5012823;28;20219;-67
2023/08/18 00:49:01;;;;;;;8.97;7.93;;;;;;;16.12;nan;97140.00;5018418;28;20433;-67
2023/08/18 00:51:28;;;;;;;8.80;8.07;;;;;;;16.03;nan;97135.94;5015633;28;20200;-67
2023/08/18 00:53:56;;;;;;;8.23;7.73;;;;;;;16.00;nan;97136.41;5017588;28;20692;-67
2023/08/18 00:56:24;;;;;;;8.20;7.60;;;;;;;15.95;nan;97139.75;4888010;28;21592;-66
2023/08/18 00:58:52;;;;;;;8.00;7.50;;;;;;;15.86;nan;97128.47;5017560;28;20461;-65
2023/08/18 01:01:20;;;;;;;8.40;7.70;;;;;;;15.82;nan;97126.47;5015749;28;20206;-66
2023/08/18 01:03:49;;;;;;;7.53;6.97;;;;;;;15.86;nan;97130.31;5018863;28;20214;-69
2023/08/18 01:06:17;;;;;;;8.90;8.20;;;;;;;15.84;nan;97133.22;5014263;28;20217;-66
2023/08/18 01:08:44;;;;;;;7.17;6.67;;;;;;;15.80;nan;97126.69;5014927;28;20231;-65
2023/08/18 01:11:18;;;;;;;8.70;8.10;;;;;;;15.83;nan;97128.09;5013830;28;21125;-67
2023/08/18 01:13:51;;;;;;;8.53;7.83;;;;;;;15.82;nan;97129.97;5014314;28;20204;-65
2023/08/18 01:16:23;;;;;;;9.53;8.83;;;;;;;15.79;nan;97127.72;4971082;28;20923;-66
2023/08/18 01:18:52;;;;;;;8.20;7.60;;;;;;;15.77;nan;97125.25;5018046;28;20220;-68
2023/08/18 01:21:22;;;;;;;7.90;7.40;;;;;;;15.74;nan;97123.03;5011525;28;20249;-65
2023/08/18 01:23:51;;;;;;;8.07;7.47;;;;;;;15.71;nan;97115.47;5015484;28;20215;-68
2023/08/18 01:26:19;;;;;;;8.47;7.83;;;;;;;15.71;nan;97119.97;5015645;28;20325;-66
2023/08/18 01:28:47;;;;;;;8.57;7.77;;;;;;;15.68;nan;97113.22;5015928;28;20204;-67
2023/08/18 01:31:16;;;;;;;8.30;7.70;;;;;;;15.62;nan;97106.91;4887119;28;21024;-67
2023/08/18 01:33:45;;;;;;;8.03;7.33;;;;;;;15.63;nan;97119.22;5014525;28;20208;-66
2023/08/18 01:36:17;;;;;;;8.20;7.57;;;;;;;15.62;nan;97116.78;5012756;28;20231;-67
2023/08/18 01:38:47;;;;;;;8.00;7.40;;;;;;;15.61;nan;97110.59;5014406;28;20607;-67
2023/08/18 01:41:20;;;;;;;8.40;7.60;;;;;;;15.60;nan;97111.63;5018511;28;20307;-66
2023/08/18 01:43:48;;;;;;;8.43;7.80;;;;;;;15.60;nan;97110.84;5016827;28;20215;-69
2023/08/18 01:46:15;;;;;;;8.63;8.03;;;;;;;15.54;nan;97111.72;5013621;28;20907;-66
2023/08/18 01:48:44;;;;;;;9.43;8.53;;;;;;;15.47;nan;97109.09;5018880;28;20215;-68
2023/08/18 01:51:11;;;;;;;8.30;7.60;;;;;;;15.42;nan;97112.38;4982886;28;20212;-68
2023/08/18 01:53:39;;;;;;;8.37;7.67;;;;;;;15.46;nan;97112.78;5017174;28;20207;-69
2023/08/18 01:56:07;;;;;;;8.17;7.57;;;;;;;15.48;nan;97114.19;5018645;28;20238;-68
2023/08/18 01:58:36;;;;;;;7.83;7.13;;;;;;;15.40;nan;97105.66;5022526;28;20219;-66
2023/08/18 02:01:04;;;;;;;9.00;8.20;;;;;;;15.47;nan;97112.56;5017726;28;20200;-68
2023/08/18 02:03:31;;;;;;;8.33;7.60;;;;;;;15.47;nan;97122.44;5023696;28;20208;-68
2023/08/18 02:06:00;;;;;;;8.27;7.57;;;;;;;15.47;nan;97123.22;4926729;28;20871;-69
2023/08/18 02:08:28;;;;;;;9.77;9.00;;;;;;;15.45;nan;97122.63;4992556;28;20292;-68
2023/08/18 02:11:01;;;;;;;9.27;8.57;;;;;;;15.44;nan;97117.53;5017638;28;20630;-68
2023/08/18 02:13:29;;;;;;;8.53;7.93;;;;;;;15.43;nan;97115.91;5020065;28;20212;-68
2023/08/18 02:15:58;;;;;;;10.27;9.47;;;;;;;15.41;nan;97112.63;5014733;28;20236;-68
2023/08/18 02:18:26;;;;;;;9.97;9.17;;;;;;;15.34;nan;97118.84;5018494;28;20258;-67
2023/08/18 02:20:56;;;;;;;9.97;9.17;;;;;;;15.37;nan;97119.44;5021147;28;20204;-67
2023/08/18 02:23:24;;;;;;;9.90;9.03;;;;;;;15.35;nan;97122.31;5026114;28;20204;-67
2023/08/18 02:25:52;;;;;;;9.50;8.77;;;;;;;15.28;nan;97125.00;4971956;28;20240;-68
2023/08/18 02:28:19;;;;;;;9.47;8.43;;;;;;;15.32;nan;97125.41;5021305;28;20211;-66
2023/08/18 02:30:47;;;;;;;9.53;8.73;;;;;;;15.27;nan;97109.22;5017441;28;20204;-67
2023/08/18 02:33:16;;;;;;;10.40;9.60;;;;;;;15.29;nan;97113.28;5021883;28;20212;-67
2023/08/18 02:35:45;;;;;;;8.47;7.77;;;;;;;15.24;nan;97128.34;5014337;28;20224;-67
2023/08/18 02:38:15;;;;;;;9.20;8.50;;;;;;;15.25;nan;97122.78;5019837;28;20216;-67
2023/08/18 02:40:44;;;;;;;9.30;8.60;;;;;;;15.27;nan;97117.22;4885999;28;20290;-67
2023/08/18 02:43:12;;;;;;;9.57;8.77;;;;;;;15.24;nan;97115.81;5023504;28;20203;-67
2023/08/18 02:45:40;;;;;;;9.23;8.43;;;;;;;15.22;nan;97120.53;5019928;28;20835;-67
2023/08/18 02:48:07;;;;;;;8.57;7.97;;;;;;;15.27;nan;97126.03;5021001;28;20583;-67
2023/08/18 02:50:36;;;;;;;8.50;7.90;;;;;;;15.29;nan;97125.84;5016435;28;20796;-66
2023/08/18 02:53:04;;;;;;;8.33;7.63;;;;;;;15.31;nan;97124.56;5018095;28;20204;-67
2023/08/18 02:55:32;;;;;;;8.83;8.03;;;;;;;15.32;nan;97131.56;4977385;28;20232;-67
2023/08/18 02:58:00;;;;;;;11.77;9.80;;;;;;;15.23;nan;97116.84;5019645;28;20216;-69
2023/08/18 03:00:28;;;;;;;12.03;10.23;;;;;;;15.20;nan;97103.94;5017258;28;20857;-66
2023/08/18 03:02:56;;;;;;;10.60;9.50;;;;;;;15.36;nan;97118.59;5017870;28;20208;-67
2023/08/18 03:05:23;;;;;;;12.77;10.30;;;;;;;15.38;nan;97124.53;5019548;28;20224;-66
2023/08/18 03:07:52;;;;;;;14.07;12.23;;;;;;;15.41;nan;97116.09;5015324;28;20205;-67
2023/08/18 03:10:20;;;;;;;16.60;10.53;;;;;;;15.42;nan;97124.94;5017668;28;20204;-67
2023/08/18 03:12:48;;;;;;;30.13;12.33;;;;;;;15.43;nan;97124.69;5019824;28;20200;-66
2023/08/18 03:15:16;;;;;;;34.30;13.40;;;;;;;15.42;nan;97123.06;4886882;28;21804;-69
2023/08/18 03:17:43;;;;;;;15.63;11.77;;;;;;;15.49;nan;97131.84;5021126;28;20223;-67
2023/08/18 03:20:11;;;;;;;22.20;13.40;;;;;;;15.40;nan;97101.13;5015026;28;20891;-65
2023/08/18 03:22:39;;;;;;;19.30;10.73;;;;;;;15.53;nan;97126.91;5021471;28;20211;-67
2023/08/18 03:25:10;;;;;;;10.90;9.90;;;;;;;15.52;nan;97121.75;5017059;28;20231;-67
2023/08/18 03:27:37;;;;;;;13.97;10.83;;;;;;;15.53;nan;97128.72;5021234;28;20215;-66
2023/08/18 03:30:07;;;;;;;23.30;11.67;;;;;;;15.49;nan;97129.19;4979877;28;21282;-66
2023/08/18 03:32:34;;;;;;;16.93;11.60;;;;;;;15.51;nan;97128.97;5017802;28;20219;-67
2023/08/18 03:35:02;;;;;;;12.60;11.50;;;;;;;15.51;nan;97133.47;5015505;28;20365;-66
2023/08/18 03:37:30;;;;;;;19.37;11.10;;;;;;;15.48;nan;97137.41;5019878;28;20224;-66
2023/08/18 03:39:58;;;;;;;30.37;12.33;;;;;;;15.47;nan;97133.09;5014621;28;20838;-67
2023/08/18 03:42:27;;;;;;;24.60;12.23;;;;;;;15.44;nan;97130.88;5019141;28;20204;-66
2023/08/18 03:44:55;;;;;;;12.53;10.80;;;;;;;15.48;nan;97137.41;5015924;28;20227;-67
2023/08/18 03:47:22;;;;;;;20.70;12.20;;;;;;;15.48;nan;97134.75;5018516;28;20196;-65
2023/08/18 03:49:51;;;;;;;11.90;10.37;;;;;;;15.54;nan;97128.53;4943840;28;21021;-67
2023/08/18 03:52:19;;;;;;;13.70;11.30;;;;;;;15.52;nan;97129.78;4972587;28;20214;-66
2023/08/18 03:54:46;;;;;;;18.20;12.13;;;;;;;15.49;nan;97126.50;5019644;28;20639;-67
2023/08/18 03:57:14;;;;;;;12.73;10.90;;;;;;;15.56;nan;97120.31;5015673;28;20228;-66
2023/08/18 03:59:43;;;;;;;16.83;12.17;;;;;;;15.56;nan;97120.31;5005962;28;20215;-67
2023/08/18 04:02:11;;;;;;;19.70;11.97;;;;;;;15.52;nan;97125.25;4990693;28;20216;-66
2023/08/18 04:04:38;;;;;;;13.33;11.20;;;;;;;15.61;nan;97123.94;5018212;28;20208;-67
2023/08/18 04:07:06;;;;;;;15.40;11.27;;;;;;;15.58;nan;97127.06;5018147;28;20200;-67
2023/08/18 04:09:34;;;;;;;10.97;9.63;;;;;;;15.55;nan;97132.84;5018162;28;20212;-67
2023/08/18 04:12:01;;;;;;;11.73;10.53;;;;;;;15.58;nan;97131.59;5016291;28;20208;-66
2023/08/18 04:14:29;;;;;;;17.27;11.77;;;;;;;15.61;nan;97129.28;5017079;28;20295;-67
2023/08/18 04:16:58;;;;;;;12.27;11.17;;;;;;;15.61;nan;97131.97;5013458;28;20235;-66
2023/08/18 04:19:26;;;;;;;23.73;11.57;;;;;;;15.61;nan;97131.97;5018771;28;20201;-66
2023/08/18 04:21:53;;;;;;;15.13;12.23;;;;;;;15.66;nan;97127.81;5015779;28;20212;-66
2023/08/18 04:24:22;;;;;;;15.47;11.53;;;;;;;15.66;nan;97128.66;5016626;28;20208;-66
2023/08/18 04:26:52;;;;;;;12.63;11.57;;;;;;;15.68;nan;97131.91;4889721;28;20745;-66
2023/08/18 04:29:20;;;;;;;12.40;11.23;;;;;;;15.67;nan;97130.28;5020006;28;20767;-66
2023/08/18 04:31:47;;;;;;;19.30;12.03;;;;;;;15.72;nan;97140.28;5014722;28;20195;-66
2023/08/18 04:34:17;;;;;;;24.47;12.73;;;;;;;15.77;nan;97137.81;5016847;28;20240;-66
2023/08/18 04:36:44;;;;;;;11.80;10.77;;;;;;;15.80;nan;97134.72;4973701;28;20247;-66
2023/08/18 04:39:12;;;;;;;32.70;13.00;;;;;;;15.77;nan;97113.78;5015533;28;20219;-67
2023/08/18 04:41:40;;;;;;;10.90;9.97;;;;;;;15.91;nan;97144.69;5013343;28;20197;-67
2023/08/18 04:44:08;;;;;;;11.10;10.10;;;;;;;15.93;nan;97138.31;5018528;28;20212;-66
2023/08/18 04:46:35;;;;;;;16.13;11.80;;;;;;;15.94;nan;97138.13;5017245;28;20224;-66
2023/08/18 04:49:04;;;;;;;11.60;10.50;;;;;;;16.00;nan;97136.41;5020351;28;20220;-66
2023/08/18 04:51:33;;;;;;;20.40;11.53;;;;;;;16.06;nan;97139.00;5013957;28;20239;-66
2023/08/18 04:54:01;;;;;;;32.47;13.40;;;;;;;16.08;nan;97138.78;5015516;28;20209;-66
2023/08/18 04:56:29;;;;;;;20.60;13.20;;;;;;;16.22;nan;97139.47;5013222;28;20239;-66
2023/08/18 04:58:56;;;;;;;38.10;14.27;;;;;;;16.31;nan;97131.97;5015741;28;20237;-65
2023/08/18 05:01:24;;;;;;;23.53;13.00;;;;;;;16.31;nan;97123.97;4885820;28;20234;-65
2023/08/18 05:03:52;;;;;;;24.27;14.67;;;;;;;16.31;nan;97124.78;5015340;28;20660;-65
2023/08/18 05:06:19;;;;;;;14.63;13.03;;;;;;;16.39;nan;97131.69;4973745;28;20286;-67
2023/08/18 05:08:49;;;;;;;24.30;13.47;;;;;;;16.35;nan;97135.84;5018197;28;20212;-67
2023/08/18 05:11:16;;;;;;;19.83;12.93;;;;;;;16.31;nan;97134.66;5015357;28;20360;-66
2023/08/18 05:13:44;;;;;;;15.13;13.07;;;;;;;16.32;nan;97131.78;5017968;28;20643;-66
2023/08/18 05:16:12;;;;;;;11.87;10.77;;;;;;;16.43;nan;97129.38;5012242;28;20224;-66
2023/08/18 05:18:40;;;;;;;12.53;11.37;;;;;;;16.39;nan;97128.22;5020131;28;20653;-66
2023/08/18 05:21:08;;;;;;;11.50;10.60;;;;;;;16.40;nan;97124.50;4969102;28;20217;-65
2023/08/18 05:23:35;;;;;;;11.30;10.30;;;;;;;16.40;nan;97140.53;5018898;28;20209;-66
2023/08/18 05:26:04;;;;;;;10.40;9.50;;;;;;;16.50;nan;97132.81;5012440;28;20224;-67
2023/08/18 05:28:33;;;;;;;11.20;10.20;;;;;;;16.58;nan;97129.03;5018635;28;20204;-66
2023/08/18 05:31:01;;;;;;;11.77;10.83;;;;;;;16.70;nan;97129.88;4886248;28;20700;-66
2023/08/18 05:33:28;;;;;;;11.17;10.13;;;;;;;16.66;nan;97138.56;5019912;28;20203;-65
2023/08/18 05:35:58;;;;;;;11.30;10.30;;;;;;;16.67;nan;97132.19;5013700;28;20255;-65
2023/08/18 05:38:26;;;;;;;10.23;9.43;;;;;;;16.73;nan;97125.97;5014142;28;20259;-65
2023/08/18 05:40:55;;;;;;;10.03;9.23;;;;;;;16.88;nan;97133.59;5014508;28;20211;-64
2023/08/18 05:43:24;;;;;;;11.07;10.17;;;;;;;17.00;nan;97123.78;5016678;28;20215;-64
2023/08/18 05:45:52;;;;;;;10.20;9.40;;;;;;;16.95;nan;97120.13;5015395;28;20222;-64
2023/08/18 05:48:19;;;;;;;9.10;8.47;;;;;;;17.07;nan;97124.50;5018752;28;20207;-65
2023/08/18 05:50:47;;;;;;;9.10;8.40;;;;;;;16.92;nan;97122.19;4973245;28;20561;-65
2023/08/18 05:53:15;;;;;;;9.13;8.37;;;;;;;17.09;nan;97126.97;5004367;28;20219;-65
2023/08/18 05:55:44;;;;;;;9.63;8.93;;;;;;;17.20;nan;97128.84;4972777;28;20261;-63
2023/08/18 05:58:12;;;;;;;9.43;8.73;;;;;;;17.26;nan;97129.81;5016300;28;20324;-65
2023/08/18 06:00:41;;;;;;;9.80;9.00;;;;;;;17.14;nan;97113.72;5015164;28;20200;-63
2023/08/18 06:03:09;;;;;;;9.20;8.50;;;;;;;17.49;nan;97114.84;5010439;28;20207;-65
2023/08/18 06:05:37;;;;;;;8.40;7.77;;;;;;;17.57;nan;97127.09;4901919;28;20290;-64
2023/08/18 06:08:05;;;;;;;8.07;7.47;;;;;;;17.62;nan;97121.84;5018460;28;20201;-62
2023/08/18 06:10:33;;;;;;;7.97;7.47;;;;;;;17.90;nan;97133.75;5014355;28;20200;-64
2023/08/18 06:13:01;;;;;;;9.13;8.43;;;;;;;18.01;nan;97137.53;5016993;28;20216;-64
2023/08/18 06:15:29;;;;;;;8.33;7.83;;;;;;;18.19;nan;97132.03;5013953;28;20725;-63
2023/08/18 06:17:58;;;;;;;8.93;8.33;;;;;;;18.10;nan;97128.09;5015691;28;20224;-62
2023/08/18 06:20:25;;;;;;;8.40;7.80;;;;;;;17.93;nan;97125.25;5010132;28;20193;-65
2023/08/18 06:22:53;;;;;;;8.30;7.70;;;;;;;17.99;nan;97129.69;5014377;28;20220;-62
2023/08/18 06:25:21;;;;;;;8.63;8.00;;;;;;;18.02;nan;97129.25;5011893;28;20224;-63
2023/08/18 06:27:48;;;;;;;7.93;7.33;;;;;;;17.99;nan;97118.13;5016939;28;20679;-62
2023/08/18 06:30:16;;;;;;;7.83;7.27;;;;;;;18.11;nan;97115.47;5010346;28;20266;-63
2023/08/18 06:32:45;;;;;;;8.23;7.63;;;;;;;18.20;nan;97117.56;5015525;28;20271;-63
2023/08/18 06:35:14;;;;;;;8.13;7.57;;;;;;;18.51;nan;97112.03;4891994;28;20232;-63
2023/08/18 06:37:42;;;;;;;8.20;7.50;;;;;;;18.40;nan;97103.00;5019344;28;20631;-63
2023/08/18 06:40:10;;;;;;;7.40;6.90;;;;;;;18.72;nan;97104.41;5019184;28;20204;-63
2023/08/18 06:42:38;;;;;;;7.43;6.97;;;;;;;19.08;nan;97108.59;5019740;28;20282;-63
2023/08/18 06:45:07;;;;;;;8.40;7.80;;;;;;;19.08;nan;97103.22;5012161;28;20243;-63
2023/08/18 06:47:35;;;;;;;8.03;7.43;;;;;;;19.29;nan;97103.59;5022294;28;20216;-63
2023/08/18 06:50:05;;;;;;;8.03;7.17;;;;;;;19.30;nan;97102.56;5017317;28;20216;-66
2023/08/18 06:52:34;;;;;;;7.90;7.40;;;;;;;19.36;nan;97100.78;5017836;28;20213;-63
2023/08/18 06:55:03;;;;;;;7.73;7.23;;;;;;;19.54;nan;97097.03;4975223;28;20700;-62
2023/08/18 06:57:31;;;;;;;7.70;7.20;;;;;;;19.65;nan;97096.13;5022140;28;20220;-62
2023/08/18 06:59:59;;;;;;;8.23;7.57;;;;;;;19.36;nan;97092.72;5015385;28;20227;-61
2023/08/18 07:02:27;;;;;;;7.87;7.37;;;;;;;19.45;nan;97103.84;5018377;28;20208;-63
2023/08/18 07:04:55;;;;;;;8.53;7.87;;;;;;;19.53;nan;97103.47;4888320;28;20236;-62
2023/08/18 07:07:23;;;;;;;8.03;7.53;;;;;;;19.72;nan;97097.84;5019483;28;20215;-62
2023/08/18 07:09:52;;;;;;;7.83;7.33;;;;;;;19.63;nan;97097.44;5020316;28;20200;-62
2023/08/18 07:12:20;;;;;;;8.30;7.70;;;;;;;19.72;nan;97100.53;5019238;28;20200;-63
2023/08/18 07:14:47;;;;;;;7.50;6.83;;;;;;;19.71;nan;97101.59;5016232;28;20758;-63
2023/08/18 07:17:15;;;;;;;8.13;7.47;;;;;;;19.66;nan;97092.38;5019249;28;20236;-64
2023/08/18 07:19:43;;;;;;;7.27;6.77;;;;;;;19.89;nan;97093.28;5015858;28;20224;-64
2023/08/18 07:22:11;;;;;;;7.83;7.27;;;;;;;20.01;nan;97092.38;5015356;28;20284;-61
2023/08/18 07:24:39;;;;;;;7.67;7.17;;;;;;;20.06;nan;97095.94;4975148;28;20215;-62
2023/08/18 07:27:08;;;;;;;7.77;7.27;;;;;;;20.41;nan;97090.47;5019436;28;20809;-62
2023/08/18 07:29:35;;;;;;;6.50;6.10;;;;;;;20.57;nan;97099.56;5018314;28;20695;-63
2023/08/18 07:32:04;;;;;;;6.93;6.43;;;;;;;20.78;nan;97092.53;4965169;28;20468;-63
2023/08/18 07:34:31;;;;;;;7.23;6.73;;;;;;;20.92;nan;97090.28;5017175;28;20214;-62
2023/08/18 07:36:59;;;;;;;6.87;6.40;;;;;;;20.76;nan;97092.81;4912883;28;21218;-65
2023/08/18 07:39:27;;;;;;;6.97;6.47;;;;;;;20.66;nan;97095.38;5002436;28;20236;-62
2023/08/18 07:41:55;;;;;;;7.50;6.80;;;;;;;20.57;nan;97088.78;5016857;28;20212;-63
2023/08/18 07:44:24;;;;;;;6.03;5.63;;;;;;;20.56;nan;97095.25;5019608;28;20717;-63
2023/08/18 07:46:52;;;;;;;7.17;6.53;;;;;;;20.72;nan;97098.94;5016177;28;20212;-62
2023/08/18 07:49:19;;;;;;;6.20;5.80;;;;;;;20.91;nan;97099.44;5019026;28;20208;-62
2023/08/18 07:51:47;;;;;;;6.13;5.73;;;;;;;21.00;nan;97097.91;5019570;28;20754;-63
2023/08/18 07:54:15;;;;;;;6.47;6.07;;;;;;;20.90;nan;97103.19;5014054;28;21469;-62
2023/08/18 07:56:43;;;;;;;5.57;5.20;;;;;;;20.95;nan;97079.84;5003961;28;20302;-64
2023/08/18 07:59:10;;;;;;;6.03;5.63;;;;;;;21.29;nan;97096.88;4993278;28;20228;-62
2023/08/18 08:01:40;;;;;;;5.73;5.43;;;;;;;21.44;nan;97104.28;5016544;28;20445;-63
2023/08/18 08:04:08;;;;;;;6.40;5.90;;;;;;;21.71;nan;97096.16;5017340;28;20253;-61
2023/08/18 08:06:35;;;;;;;5.43;5.03;;;;;;;21.60;nan;97099.81;4977917;28;20234;-64
2023/08/18 08:09:05;;;;;;;5.40;5.10;;;;;;;21.66;nan;97102.31;4935078;28;20212;-63
2023/08/18 08:11:32;;;;;;;5.43;5.07;;;;;;;21.53;nan;97098.13;5019182;28;20220;-63
2023/08/18 08:14:01;;;;;;;5.67;5.23;;;;;;;21.61;nan;97101.44;5022635;28;20291;-62
2023/08/18 08:16:30;;;;;;;5.67;5.37;;;;;;;21.75;nan;97091.88;5020696;28;20247;-62
2023/08/18 08:18:59;;;;;;;5.47;5.13;;;;;;;21.70;nan;97099.94;5014984;28;20232;-63
2023/08/18 08:21:26;;;;;;;6.23;5.73;;;;;;;21.81;nan;97090.84;5016542;28;20204;-62
2023/08/18 08:23:54;;;;;;;5.80;5.50;;;;;;;21.89;nan;97094.94;5014899;28;20690;-62
2023/08/18 08:26:22;;;;;;;5.53;5.23;;;;;;;21.87;nan;97097.09;5019377;28;20228;-60
2023/08/18 08:28:49;;;;;;;5.30;5.00;;;;;;;21.88;nan;97096.00;4972873;28;20215;-62
2023/08/18 08:31:17;;;;;;;5.20;4.90;;;;;;;21.74;nan;97097.50;5017078;28;20600;-62
2023/08/18 08:33:45;;;;;;;5.37;5.07;;;;;;;21.77;nan;97100.50;5013646;28;20301;-63
2023/08/18 08:36:14;;;;;;;4.93;4.63;;;;;;;21.90;nan;97093.88;5017716;28;20257;-63
2023/08/18 08:38:42;;;;;;;4.90;4.50;;;;;;;21.93;nan;97101.44;5013332;28;20204;-62
2023/08/18 08:41:11;;;;;;;5.60;5.20;;;;;;;22.21;nan;97101.31;5019749;28;20219;-63
2023/08/18 08:43:38;;;;;;;5.10;4.80;;;;;;;22.14;nan;97101.53;4881282;28;20212;-62
2023/08/18 08:46:06;;;;;;;4.97;4.63;;;;;;;21.97;nan;97104.41;5018859;28;20226;-63
2023/08/18 08:48:38;;;;;;;5.67;5.17;;;;;;;22.01;nan;97081.25;5014938;28;20676;-63
2023/08/18 08:51:10;;;;;;;5.00;4.70;;;;;;;22.36;nan;97106.81;5020428;28;20200;-64
2023/08/18 08:53:41;;;;;;;5.20;4.80;;;;;;;22.39;nan;97103.59;5012561;28;20212;-64
2023/08/18 08:56:09;;;;;;;5.00;4.70;;;;;;;22.39;nan;97102.75;5019670;28;20227;-64
2023/08/18 08:58:37;;;;;;;5.13;4.83;;;;;;;22.34;nan;97100.03;5012790;28;20693;-63
2023/08/18 09:01:06;;;;;;;4.70;4.50;;;;;;;22.46;nan;97097.97;5016801;28;20228;-64
2023/08/18 09:03:34;;;;;;;4.83;4.60;;;;;;;22.50;nan;97099.06;5013722;28;20208;-64
2023/08/18 09:06:02;;;;;;;4.70;4.50;;;;;;;22.73;nan;97090.78;5016278;28;20286;-63
2023/08/18 09:08:30;;;;;;;5.63;5.30;;;;;;;23.02;nan;97099.25;5013130;28;20208;-63
2023/08/18 09:10:59;;;;;;;5.77;5.23;;;;;;;23.16;nan;97093.31;5019792;28;20212;-64
2023/08/18 09:13:27;;;;;;;5.83;5.53;;;;;;;23.40;nan;97093.63;4888392;28;20228;-63
2023/08/18 09:15:55;;;;;;;5.43;5.13;;;;;;;23.45;nan;97092.84;5013964;28;20257;-63
2023/08/18 09:18:22;;;;;;;5.57;5.17;;;;;;;23.54;nan;97099.31;5014329;28;20204;-65
2023/08/18 09:20:50;;;;;;;4.97;4.67;;;;;;;23.67;nan;97089.84;5017896;28;20216;-64
2023/08/18 09:23:18;;;;;;;5.53;5.23;;;;;;;23.49;nan;97097.44;5012678;28;20207;-65
2023/08/18 09:25:50;;;;;;;5.33;5.03;;;;;;;23.54;nan;97086.63;5017154;28;20229;-64
2023/08/18 09:28:19;;;;;;;4.93;4.63;;;;;;;23.46;nan;97089.06;4967759;28;20769;-64
2023/08/18 09:30:47;;;;;;;5.87;5.47;;;;;;;23.35;nan;97086.34;5015474;28;20201;-65
2023/08/18 09:33:23;;;;;;;5.87;5.50;;;;;;;23.14;nan;97088.19;5014369;28;20719;-63
2023/08/18 09:35:57;;;;;;;6.40;6.00;;;;;;;23.51;nan;97091.75;5019640;28;20274;-65
2023/08/18 09:38:27;;;;;;;6.50;6.10;;;;;;;23.39;nan;97079.31;5012855;28;20208;-64
2023/08/18 09:40:56;;;;;;;6.57;6.17;;;;;;;23.33;nan;97080.41;5019814;28;20240;-66
2023/08/18 09:43:25;;;;;;;5.73;5.43;;;;;;;23.57;nan;97079.84;4968970;28;20205;-64
2023/08/18 09:45:53;;;;;;;6.40;6.00;;;;;;;23.69;nan;97076.88;5017106;28;20607;-62
2023/08/18 09:48:22;;;;;;;6.47;6.07;;;;;;;23.74;nan;97078.78;4884004;28;20274;-66
2023/08/18 09:50:54;;;;;;;5.83;5.53;;;;;;;23.69;nan;97079.56;5016476;28;20237;-64
2023/08/18 09:53:31;;;;;;;5.97;5.27;;;;;;;23.92;nan;97072.78;5010568;28;20246;-64
2023/08/18 09:56:04;;;;;;;5.50;5.20;;;;;;;24.13;nan;97072.78;5019358;28;20232;-67
2023/08/18 09:58:36;;;;;;;5.77;5.23;;;;;;;24.01;nan;97066.84;5012568;28;20212;-63
2023/08/18 10:01:05;;;;;;;5.60;5.30;;;;;;;23.93;nan;97051.97;5016843;28;20225;-63
2023/08/18 10:03:35;;;;;;;5.57;5.27;;;;;;;23.84;nan;97065.22;5013242;28;20211;-62
2023/08/18 10:06:03;;;;;;;5.43;4.93;;;;;;;24.17;nan;97073.84;5018460;28;20236;-63
2023/08/18 10:08:32;;;;;;;5.23;4.93;;;;;;;24.28;nan;97066.50;5011829;28;20208;-64
2023/08/18 10:11:00;;;;;;;5.30;4.90;;;;;;;24.44;nan;97069.97;5020014;28;20219;-64
2023/08/18 10:13:31;;;;;;;5.43;5.03;;;;;;;24.64;nan;97063.66;4978923;28;20795;-64
2023/08/18 10:16:00;;;;;;;5.23;4.93;;;;;;;24.52;nan;97066.69;5017408;28;20600;-64
2023/08/18 10:18:28;;;;;;;5.00;4.70;;;;;;;24.48;nan;97065.63;4887521;28;20228;-63
2023/08/18 10:20:56;;;;;;;4.60;4.40;;;;;;;24.55;nan;97065.31;5022273;28;20733;-63
2023/08/18 10:23:25;;;;;;;4.73;4.53;;;;;;;24.75;nan;97050.88;5015149;28;20572;-64
2023/08/18 10:25:53;;;;;;;5.40;5.10;;;;;;;24.89;nan;97055.69;5022704;28;20223;-64
2023/08/18 10:28:23;;;;;;;5.30;5.00;;;;;;;24.68;nan;97070.13;5021639;28;20220;-63
2023/08/18 10:30:52;;;;;;;5.83;4.67;;;;;;;24.49;nan;97067.25;5020527;28;21478;-62
2023/08/18 10:33:32;;;;;;;5.93;5.43;;;;;;;24.38;nan;97055.63;5018640;28;20827;-62
2023/08/18 10:36:03;;;;;;;5.63;5.10;;;;;;;24.71;nan;97061.44;5020351;28;20304;-63
2023/08/18 10:38:31;;;;;;;5.67;5.27;;;;;;;24.90;nan;97068.16;5015324;28;20204;-63
2023/08/18 10:40:58;;;;;;;5.63;5.10;;;;;;;24.52;nan;97069.41;5022298;28;20224;-62
2023/08/18 10:43:27;;;;;;;5.50;5.10;;;;;;;24.65;nan;97078.81;5016886;28;20216;-62
2023/08/18 10:45:58;;;;;;;4.67;4.37;;;;;;;24.94;nan;97072.72;5021962;28;20312;-62
2023/08/18 10:48:30;;;;;;;5.23;4.77;;;;;;;25.05;nan;97069.97;4886455;28;20220;-62
2023/08/18 10:50:58;;;;;;;4.90;4.57;;;;;;;24.90;nan;97070.84;5021873;28;20204;-63
2023/08/18 10:53:26;;;;;;;4.50;4.20;;;;;;;25.27;nan;97067.63;5018642;28;20223;-62
2023/08/18 10:55:54;;;;;;;4.40;4.13;;;;;;;25.25;nan;97060.88;5021742;28;20302;-63
2023/08/18 10:58:22;;;;;;;4.50;4.13;;;;;;;25.32;nan;97063.25;5016573;28;20212;-62
2023/08/18 11:00:50;;;;;;;4.10;3.90;;;;;;;25.37;nan;97057.78;5021006;28;20778;-63
2023/08/18 11:03:19;;;;;;;4.60;4.30;;;;;;;25.13;nan;97053.88;5016314;28;20215;-63
2023/08/18 11:05:48;;;;;;;4.80;4.37;;;;;;;25.20;nan;97048.16;5019821;28;20640;-62
2023/08/18 11:08:16;;;;;;;4.20;3.90;;;;;;;25.33;nan;97049.41;5015249;28;20509;-65
2023/08/18 11:10:43;;;;;;;4.20;4.00;;;;;;;25.20;nan;97040.03;5023679;28;20214;-63
2023/08/18 11:13:13;;;;;;;4.30;4.00;;;;;;;25.32;nan;97039.66;5022725;28;20600;-64
2023/08/18 11:15:42;;;;;;;4.73;4.40;;;;;;;25.31;nan;97038.03;5020741;28;20307;-64
2023/08/18 11:18:09;;;;;;;3.70;3.40;;;;;;;25.46;nan;97048.00;5019681;28;20214;-63
2023/08/18 11:20:37;;;;;;;4.47;3.50;;;;;;;25.48;nan;97037.66;5020068;28;20250;-62
2023/08/18 11:23:06;;;;;;;3.73;3.53;;;;;;;25.53;nan;97044.94;4890304;28;20734;-64
2023/08/18 11:25:34;;;;;;;3.63;3.43;;;;;;;25.58;nan;97040.28;5022932;28;20238;-65
2023/08/18 11:28:02;;;;;;;3.90;3.70;;;;;;;25.67;nan;97036.94;5013882;28;20361;-64
2023/08/18 11:30:29;;;;;;;3.60;3.40;;;;;;;25.84;nan;97031.06;5023191;28;20715;-64
2023/08/18 11:32:57;;;;;;;3.83;3.57;;;;;;;26.01;nan;97039.59;5020637;28;20876;-64
2023/08/18 11:35:26;;;;;;;4.30;4.00;;;;;;;26.13;nan;97041.88;5024047;28;20250;-63
2023/08/18 11:37:54;;;;;;;3.70;3.40;;;;;;;26.09;nan;97040.06;5012435;28;20212;-63
2023/08/18 11:40:24;;;;;;;3.00;2.90;;;;;;;26.17;nan;97036.72;5020284;28;20204;-64
2023/08/18 11:42:53;;;;;;;3.17;3.07;;;;;;;26.17;nan;97039.44;5015400;28;20207;-63
2023/08/18 11:45:22;;;;;;;3.43;3.33;;;;;;;26.23;nan;97035.56;5021310;28;20262;-63
2023/08/18 11:47:59;;;;;;;3.40;3.20;;;;;;;26.27;nan;97031.16;5014625;28;20503;-63
2023/08/18 11:50:31;;;;;;;2.90;2.80;;;;;;;26.56;nan;97030.25;5019250;28;20597;-63
2023/08/18 11:52:59;;;;;;;3.00;2.70;;;;;;;26.38;nan;97025.63;5015710;28;20209;-65